Terminal Aerodrome Forecast
Issued by NWS

Home | Current Version | Previous Version | Text Only | Print | Product List | Glossary On
Versions: 1 2 3 4 5 6 7 8 9 10 11 12 13 14 15
000
FTUS44 KLIX 111700
TAFMSY
TAF
KMSY 111738Z 1118/1218 33005KT P6SM SCT035 BKN250
     FM112200 VRB03KT P6SM VCTS SCT030CB SCT050
      TEMPO 1122/1201 VRB25KT 3SM TSRA BKN040CB
     FM120100 00000KT P6SM SCT050=

USA.gov is the U.S. government's official web portal to all federal, state and local government web resources and services.